sensor_id;sensor_type;location;lat;lon;timestamp;temperature;humidity
34061;DHT22;20336;-33.424;-70.638;2023-02-19T00:01:44;24.30;99.90
34061;DHT22;20336;-33.424;-70.638;2023-02-19T00:04:16;24.20;99.90
34061;DHT22;20336;-33.424;-70.638;2023-02-19T00:06:45;24.20;99.90
34061;DHT22;20336;-33.424;-70.638;2023-02-19T00:09:14;24.10;99.90
34061;DHT22;20336;-33.424;-70.638;2023-02-19T00:11:41;24.00;99.90
34061;DHT22;20336;-33.424;-70.638;2023-02-19T00:14:09;23.90;99.90
34061;DHT22;20336;-33.424;-70.638;2023-02-19T00:16:38;23.90;99.90
34061;DHT22;20336;-33.424;-70.638;2023-02-19T00:19:07;24.00;99.90
34061;DHT22;20336;-33.424;-70.638;2023-02-19T00:21:37;23.80;99.90
34061;DHT22;20336;-33.424;-70.638;2023-02-19T00:24:05;23.70;99.90
34061;DHT22;20336;-33.424;-70.638;2023-02-19T00:26:33;23.70;99.90
34061;DHT22;20336;-33.424;-70.638;2023-02-19T00:29:00;23.70;99.90
34061;DHT22;20336;-33.424;-70.638;2023-02-19T00:31:29;23.60;99.90
34061;DHT22;20336;-33.424;-70.638;2023-02-19T00:33:58;23.50;99.90
34061;DHT22;20336;-33.424;-70.638;2023-02-19T00:36:26;23.40;99.90
34061;DHT22;20336;-33.424;-70.638;2023-02-19T00:38:53;23.40;99.90
34061;DHT22;20336;-33.424;-70.638;2023-02-19T00:41:22;23.40;99.90
34061;DHT22;20336;-33.424;-70.638;2023-02-19T00:43:55;23.40;99.90
34061;DHT22;20336;-33.424;-70.638;2023-02-19T00:46:29;23.40;99.90
34061;DHT22;20336;-33.424;-70.638;2023-02-19T00:48:57;23.30;99.90
34061;DHT22;20336;-33.424;-70.638;2023-02-19T00:51:30;23.20;99.90
34061;DHT22;20336;-33.424;-70.638;2023-02-19T00:53:57;23.10;99.90
34061;DHT22;20336;-33.424;-70.638;2023-02-19T00:56:24;23.00;99.90
34061;DHT22;20336;-33.424;-70.638;2023-02-19T15:22:20;31.20;99.90
34061;DHT22;20336;-33.424;-70.638;2023-02-19T15:24:47;31.30;99.90
34061;DHT22;20336;-33.424;-70.638;2023-02-19T15:27:19;31.20;99.90
34061;DHT22;20336;-33.424;-70.638;2023-02-19T15:29:49;31.30;99.90
34061;DHT22;20336;-33.424;-70.638;2023-02-19T15:32:26;31.50;99.90
34061;DHT22;20336;-33.424;-70.638;2023-02-19T15:34:56;32.00;99.90
34061;DHT22;20336;-33.424;-70.638;2023-02-19T15:37:27;31.60;99.90
34061;DHT22;20336;-33.424;-70.638;2023-02-19T15:39:56;32.10;99.90
34061;DHT22;20336;-33.424;-70.638;2023-02-19T15:42:29;32.70;98.30
34061;DHT22;20336;-33.424;-70.638;2023-02-19T15:45:22;32.10;98.30
34061;DHT22;20336;-33.424;-70.638;2023-02-19T15:48:10;31.50;98.80
34061;DHT22;20336;-33.424;-70.638;2023-02-19T15:50:42;31.40;98.60
34061;DHT22;20336;-33.424;-70.638;2023-02-19T15:53:15;31.60;99.20
34061;DHT22;20336;-33.424;-70.638;2023-02-19T15:56:02;32.20;97.90
34061;DHT22;20336;-33.424;-70.638;2023-02-19T15:58:51;32.60;96.80
34061;DHT22;20336;-33.424;-70.638;2023-02-19T16:01:21;32.80;95.80
34061;DHT22;20336;-33.424;-70.638;2023-02-19T16:03:50;33.00;94.20
34061;DHT22;20336;-33.424;-70.638;2023-02-19T16:06:22;32.40;95.30
34061;DHT22;20336;-33.424;-70.638;2023-02-19T16:09:04;32.50;95.50
34061;DHT22;20336;-33.424;-70.638;2023-02-19T16:11:58;33.10;94.90
34061;DHT22;20336;-33.424;-70.638;2023-02-19T16:14:29;32.90;93.90
34061;DHT22;20336;-33.424;-70.638;2023-02-19T16:16:59;33.30;93.70
34061;DHT22;20336;-33.424;-70.638;2023-02-19T16:22:15;33.90;92.50
34061;DHT22;20336;-33.424;-70.638;2023-02-19T16:24:45;33.90;91.60
34061;DHT22;20336;-33.424;-70.638;2023-02-19T16:27:23;34.00;91.70
34061;DHT22;20336;-33.424;-70.638;2023-02-19T16:29:53;33.90;90.80
34061;DHT22;20336;-33.424;-70.638;2023-02-19T16:32:20;34.30;90.90
34061;DHT22;20336;-33.424;-70.638;2023-02-19T16:34:48;34.50;90.30
34061;DHT22;20336;-33.424;-70.638;2023-02-19T16:37:37;34.50;90.30
34061;DHT22;20336;-33.424;-70.638;2023-02-19T16:43:22;35.00;89.10
34061;DHT22;20336;-33.424;-70.638;2023-02-19T16:45:47;34.90;87.70
34061;DHT22;20336;-33.424;-70.638;2023-02-19T16:48:14;34.80;86.40
34061;DHT22;20336;-33.424;-70.638;2023-02-19T16:50:41;35.10;86.00
34061;DHT22;20336;-33.424;-70.638;2023-02-19T16:53:17;36.50;84.50
34061;DHT22;20336;-33.424;-70.638;2023-02-19T16:55:45;36.60;83.00
34061;DHT22;20336;-33.424;-70.638;2023-02-19T16:58:12;36.10;81.90
34061;DHT22;20336;-33.424;-70.638;2023-02-19T17:00:39;35.40;82.70
34061;DHT22;20336;-33.424;-70.638;2023-02-19T17:03:11;35.90;83.00
34061;DHT22;20336;-33.424;-70.638;2023-02-19T17:05:39;36.80;82.10
34061;DHT22;20336;-33.424;-70.638;2023-02-19T17:11:01;36.60;79.20
34061;DHT22;20336;-33.424;-70.638;2023-02-19T17:13:28;37.00;81.80
34061;DHT22;20336;-33.424;-70.638;2023-02-19T17:18:22;37.60;74.70
34061;DHT22;20336;-33.424;-70.638;2023-02-19T17:21:15;37.60;74.80
34061;DHT22;20336;-33.424;-70.638;2023-02-19T17:23:43;37.80;74.50
34061;DHT22;20336;-33.424;-70.638;2023-02-19T17:26:14;37.50;73.60
34061;DHT22;20336;-33.424;-70.638;2023-02-19T23:03:16;32.00;63.30
34061;DHT22;20336;-33.424;-70.638;2023-02-19T23:05:43;31.50;64.40
34061;DHT22;20336;-33.424;-70.638;2023-02-19T23:08:10;31.00;65.30
34061;DHT22;20336;-33.424;-70.638;2023-02-19T23:10:36;30.90;65.80
34061;DHT22;20336;-33.424;-70.638;2023-02-19T23:13:04;30.50;66.50
34061;DHT22;20336;-33.424;-70.638;2023-02-19T23:15:31;30.20;67.60
34061;DHT22;20336;-33.424;-70.638;2023-02-19T23:17:58;30.00;68.20
34061;DHT22;20336;-33.424;-70.638;2023-02-19T23:20:25;29.80;69.10
34061;DHT22;20336;-33.424;-70.638;2023-02-19T23:22:52;29.50;69.70
34061;DHT22;20336;-33.424;-70.638;2023-02-19T23:25:18;29.20;69.60
34061;DHT22;20336;-33.424;-70.638;2023-02-19T23:27:45;29.10;70.70
34061;DHT22;20336;-33.424;-70.638;2023-02-19T23:30:13;29.00;71.40
34061;DHT22;20336;-33.424;-70.638;2023-02-19T23:32:41;28.90;71.90
34061;DHT22;20336;-33.424;-70.638;2023-02-19T23:35:08;28.70;71.70
34061;DHT22;20336;-33.424;-70.638;2023-02-19T23:37:35;28.50;72.70
34061;DHT22;20336;-33.424;-70.638;2023-02-19T23:40:02;28.30;73.10
34061;DHT22;20336;-33.424;-70.638;2023-02-19T23:42:29;28.10;73.50
34061;DHT22;20336;-33.424;-70.638;2023-02-19T23:44:56;27.90;75.00
34061;DHT22;20336;-33.424;-70.638;2023-02-19T23:47:23;27.80;75.90
34061;DHT22;20336;-33.424;-70.638;2023-02-19T23:49:51;27.70;75.70
34061;DHT22;20336;-33.424;-70.638;2023-02-19T23:52:18;27.60;75.70
34061;DHT22;20336;-33.424;-70.638;2023-02-19T23:54:45;27.50;75.10
34061;DHT22;20336;-33.424;-70.638;2023-02-19T23:57:12;27.40;75.60
34061;DHT22;20336;-33.424;-70.638;2023-02-19T23:59:40;27.20;76.70
